createdAt,value
2018-06-20T00:02:20.047Z,23.50
2018-06-20T00:04:48.102Z,23.50
2018-06-20T00:07:15.801Z,23.50
2018-06-20T00:09:43.585Z,23.50
2018-06-20T00:12:11.586Z,23.60
2018-06-20T00:14:39.207Z,23.50
2018-06-20T00:17:06.769Z,23.50
2018-06-20T00:19:34.343Z,23.50
2018-06-20T00:22:01.939Z,23.50
2018-06-20T00:24:29.571Z,23.50
2018-06-20T00:26:57.160Z,23.50
2018-06-20T00:29:25.352Z,23.50
2018-06-20T00:31:52.928Z,23.50
2018-06-20T00:34:20.809Z,23.50
2018-06-20T00:36:48.218Z,23.40
2018-06-20T00:39:15.778Z,23.40
2018-06-20T00:41:47.770Z,23.40
2018-06-20T00:44:15.310Z,23.40
2018-06-20T00:46:42.924Z,23.40
2018-06-20T00:49:10.809Z,23.40
2018-06-20T00:51:38.386Z,23.30
2018-06-20T00:54:05.979Z,23.30
2018-06-20T00:56:33.987Z,23.30
2018-06-20T00:59:01.504Z,23.20
2018-06-20T01:01:29.059Z,23.30
2018-06-20T01:03:56.632Z,23.20
2018-06-20T01:06:24.242Z,23.20
2018-06-20T01:08:54.252Z,23.20
2018-06-20T01:11:21.967Z,23.20
2018-06-20T01:13:49.713Z,23.20
2018-06-20T01:16:17.121Z,23.20
2018-06-20T01:18:44.698Z,23.20
2018-06-20T01:21:12.225Z,23.20
2018-06-20T01:23:39.684Z,23.20
2018-06-20T01:26:07.397Z,23.10
2018-06-20T01:28:34.895Z,23.10
2018-06-20T01:31:02.318Z,23.00
2018-06-20T01:33:29.921Z,23.00
2018-06-20T01:35:57.370Z,23.00
2018-06-20T01:38:24.791Z,23.00
2018-06-20T01:40:52.124Z,23.00
2018-06-20T01:43:19.544Z,23.00
2018-06-20T01:45:52.924Z,22.90
2018-06-20T01:48:20.286Z,22.90
2018-06-20T01:50:47.662Z,22.90
2018-06-20T01:53:15.065Z,22.90
2018-06-20T01:55:42.499Z,22.90
2018-06-20T01:58:10.048Z,22.90
2018-06-20T02:00:37.447Z,22.80
2018-06-20T02:03:04.872Z,22.80
2018-06-20T02:05:32.624Z,22.80
2018-06-20T02:07:59.942Z,22.80
2018-06-20T02:10:27.393Z,22.80
2018-06-20T02:12:54.851Z,22.80
2018-06-20T02:15:22.394Z,22.80
2018-06-20T02:17:49.970Z,22.70
2018-06-20T02:20:17.596Z,22.70
2018-06-20T02:22:44.967Z,22.80
2018-06-20T02:25:12.410Z,22.70
2018-06-20T02:27:42.509Z,22.70
2018-06-20T02:30:10.138Z,22.70
2018-06-20T02:32:37.523Z,22.70
2018-06-20T02:35:07.794Z,22.60
2018-06-20T02:37:35.668Z,22.60
2018-06-20T02:40:03.219Z,22.50
2018-06-20T02:42:31.194Z,22.50
2018-06-20T02:45:00.619Z,22.50
2018-06-20T02:47:33.967Z,22.50
2018-06-20T02:50:01.368Z,22.50
2018-06-20T02:52:29.019Z,22.40
2018-06-20T02:54:57.018Z,22.40
2018-06-20T02:57:24.471Z,22.40
2018-06-20T02:59:51.994Z,22.40
2018-06-20T03:02:19.506Z,22.50
2018-06-20T03:04:46.912Z,22.50
2018-06-20T03:07:14.838Z,22.50
2018-06-20T03:09:42.299Z,22.50
2018-06-20T03:12:09.759Z,22.60
2018-06-20T03:14:37.182Z,22.60
2018-06-20T03:17:04.798Z,22.50
2018-06-20T03:19:32.347Z,22.50
2018-06-20T03:24:27.717Z,22.40
2018-06-20T03:26:55.138Z,22.40
2018-06-20T03:29:22.854Z,22.30
2018-06-20T03:31:50.293Z,22.30
2018-06-20T03:34:17.781Z,22.30
2018-06-20T03:36:45.306Z,22.20
2018-06-20T03:39:12.771Z,22.20
2018-06-20T03:41:40.221Z,22.20
2018-06-20T03:44:07.685Z,22.20
2018-06-20T03:46:35.714Z,22.20
2018-06-20T03:49:03.550Z,22.10
2018-06-20T03:51:31.112Z,22.10
2018-06-20T03:53:58.802Z,22.10
2018-06-20T03:56:26.554Z,22.10
2018-06-20T03:58:54.754Z,22.10
2018-06-20T04:01:22.234Z,22.10
2018-06-20T04:03:49.978Z,22.10
2018-06-20T04:06:17.339Z,22.10
2018-06-20T04:08:44.912Z,22.10
2018-06-20T04:11:12.306Z,22.10
2018-06-20T04:13:39.868Z,22.10
2018-06-20T04:16:07.274Z,22.10
2018-06-20T04:18:41.783Z,22.10
2018-06-20T04:21:10.866Z,22.10
2018-06-20T04:26:06.217Z,22.10
2018-06-20T04:28:34.106Z,22.10
2018-06-20T04:31:01.544Z,22.20
2018-06-20T04:33:28.877Z,22.20
2018-06-20T04:35:56.620Z,22.20
2018-06-20T04:38:23.994Z,22.20
2018-06-20T04:40:51.392Z,22.20
2018-06-20T04:43:19.076Z,22.20
2018-06-20T04:45:46.344Z,22.20
2018-06-20T04:48:13.653Z,22.20
2018-06-20T04:50:41.462Z,22.20
2018-06-20T04:53:08.792Z,22.20
2018-06-20T04:55:36.062Z,22.10
2018-06-20T04:58:03.524Z,22.20
2018-06-20T05:00:30.859Z,22.10
2018-06-20T05:02:58.119Z,22.10
2018-06-20T05:05:25.502Z,22.10
2018-06-20T05:07:52.798Z,22.10
2018-06-20T05:10:20.052Z,22.10
2018-06-20T05:12:47.324Z,22.10
2018-06-20T05:15:14.651Z,22.10
2018-06-20T05:17:41.939Z,22.00
2018-06-20T05:20:09.196Z,22.00
2018-06-20T05:22:36.765Z,22.00
2018-06-20T05:25:04.200Z,22.00
2018-06-20T05:29:59.154Z,22.00
2018-06-20T05:32:26.416Z,22.00
2018-06-20T05:34:53.894Z,22.00
2018-06-20T05:37:21.607Z,21.90
2018-06-20T05:39:48.886Z,21.80
2018-06-20T05:42:16.134Z,21.80
2018-06-20T05:44:43.743Z,21.80
2018-06-20T05:47:11.078Z,21.80
2018-06-20T05:49:40.358Z,21.80
2018-06-20T05:54:35.014Z,21.80
2018-06-20T05:57:02.653Z,21.80
2018-06-20T05:59:29.883Z,21.80
2018-06-20T06:01:57.139Z,21.80
2018-06-20T06:06:51.780Z,21.70
2018-06-20T06:11:46.345Z,21.70
2018-06-20T06:14:13.600Z,21.70
2018-06-20T06:16:40.879Z,21.70
2018-06-20T06:19:08.220Z,21.70
2018-06-20T06:21:35.510Z,21.70
2018-06-20T06:24:03.212Z,21.70
2018-06-20T06:26:30.513Z,21.70
2018-06-20T06:28:57.829Z,21.70
2018-06-20T06:31:25.469Z,21.70
2018-06-20T06:33:52.738Z,21.70
2018-06-20T06:38:47.517Z,21.70
2018-06-20T06:41:14.802Z,21.60
2018-06-20T06:43:42.084Z,21.60
2018-06-20T06:48:36.878Z,21.60
2018-06-20T06:51:04.169Z,21.50
2018-06-20T06:53:31.471Z,21.50
2018-06-20T06:55:58.851Z,21.50
2018-06-20T06:58:26.026Z,21.50
2018-06-20T07:03:20.592Z,21.50
2018-06-20T07:05:47.854Z,21.50
2018-06-20T07:08:15.454Z,21.60
2018-06-20T07:10:42.733Z,21.60
2018-06-20T07:15:37.286Z,21.60
2018-06-20T07:18:04.595Z,21.60
2018-06-20T08:47:58.974Z,21.70
2018-06-20T08:50:26.332Z,22.20
2018-06-20T08:52:53.602Z,22.20
2018-06-20T08:55:20.887Z,22.30
2018-06-20T08:57:48.168Z,22.40
2018-06-20T09:00:20.091Z,22.40
2018-06-20T09:05:20.674Z,22.50
2018-06-20T09:10:26.653Z,22.50
2018-06-20T09:15:32.628Z,22.50
2018-06-20T09:18:05.594Z,22.50
2018-06-20T09:20:33.341Z,22.60
2018-06-20T09:23:00.657Z,22.60
2018-06-20T09:25:27.955Z,22.60
2018-06-20T09:27:55.670Z,22.60
2018-06-20T09:30:22.935Z,22.60
2018-06-20T09:32:50.211Z,22.60
2018-06-20T09:35:17.499Z,22.60
2018-06-20T09:37:44.779Z,22.60
2018-06-20T09:40:12.131Z,22.70
2018-06-20T09:42:39.407Z,22.80
2018-06-20T09:45:06.686Z,22.90
2018-06-20T09:47:33.982Z,22.90
2018-06-20T09:50:07.048Z,22.90
2018-06-20T09:52:34.695Z,22.90
2018-06-20T09:55:01.973Z,23.00
2018-06-20T09:57:29.286Z,23.00
2018-06-20T10:00:02.189Z,23.00
2018-06-20T10:02:35.193Z,23.00
2018-06-20T10:05:08.503Z,23.10
2018-06-20T10:07:41.475Z,23.10
2018-06-20T10:10:14.791Z,23.20
2018-06-20T10:12:47.710Z,23.20
2018-06-20T10:15:14.996Z,23.40
2018-06-20T10:17:42.301Z,23.50
2018-06-20T10:20:15.479Z,23.40
2018-06-20T10:22:42.776Z,23.40
2018-06-20T10:25:10.056Z,23.50
2018-06-20T10:27:37.670Z,23.50
2018-06-20T10:30:04.969Z,23.40
2018-06-20T10:32:32.390Z,23.50
2018-06-20T10:34:59.678Z,23.50
2018-06-20T10:37:26.943Z,23.50
2018-06-20T10:39:54.276Z,23.60
2018-06-20T10:42:21.539Z,23.50
2018-06-20T10:44:48.819Z,23.60
2018-06-20T10:47:21.830Z,23.70
2018-06-20T10:52:16.497Z,23.70
2018-06-20T10:54:43.845Z,23.90
2018-06-20T10:57:16.791Z,24.00
2018-06-20T10:59:50.222Z,24.00
2018-06-20T11:02:23.313Z,24.00
2018-06-20T11:04:56.647Z,24.10
2018-06-20T11:09:33.885Z,24.20
2018-06-20T11:12:06.777Z,24.20
2018-06-20T11:14:34.145Z,24.30
2018-06-20T11:19:55.086Z,24.30
2018-06-20T11:22:22.262Z,24.40
2018-06-20T11:24:49.394Z,24.40
2018-06-20T11:27:16.566Z,24.60
2018-06-20T11:32:11.023Z,24.70
2018-06-20T11:34:38.181Z,24.80
2018-06-20T11:37:05.369Z,24.80
2018-06-20T11:39:32.589Z,24.80
2018-06-20T11:41:59.721Z,24.80
2018-06-20T11:46:59.925Z,24.90
2018-06-20T11:49:27.122Z,24.90
2018-06-20T11:54:21.529Z,25.00
2018-06-20T11:59:22.059Z,25.10
2018-06-20T12:01:54.923Z,25.20
2018-06-20T12:04:28.242Z,25.20
2018-06-20T12:07:01.198Z,25.30
2018-06-20T12:09:34.101Z,25.40
2018-06-20T12:12:06.939Z,25.40
2018-06-20T12:14:39.906Z,25.50
2018-06-20T12:17:06.634Z,25.50
2018-06-20T12:19:39.519Z,25.60
2018-06-20T12:22:12.333Z,25.60
2018-06-20T12:27:18.704Z,25.70
2018-06-20T12:34:57.709Z,25.80
2018-06-20T12:37:31.052Z,25.70
2018-06-20T12:40:03.530Z,25.70
2018-06-20T12:42:36.942Z,25.70
2018-06-20T12:45:05.854Z,25.70
2018-06-20T12:50:09.757Z,25.80
2018-06-20T12:52:36.970Z,26.00
2018-06-20T12:55:04.681Z,26.10
2018-06-20T12:57:31.855Z,26.10
2018-06-20T13:02:26.553Z,26.30
2018-06-20T13:04:53.766Z,26.40
2018-06-20T13:07:20.917Z,26.50
2018-06-20T13:09:48.097Z,26.50
2018-06-20T13:12:15.272Z,26.60
2018-06-20T13:14:42.459Z,26.70
2018-06-20T13:19:36.845Z,26.70
2018-06-20T13:22:04.026Z,26.80
2018-06-20T13:26:58.421Z,26.80
2018-06-20T13:29:25.600Z,26.70
2018-06-20T13:31:58.414Z,26.70
2018-06-20T13:34:31.358Z,26.70
2018-06-20T13:37:04.641Z,26.70
2018-06-20T13:39:37.690Z,26.80
2018-06-20T13:42:07.664Z,26.90
2018-06-20T13:47:07.757Z,27.10
2018-06-20T13:49:34.922Z,27.20
2018-06-20T13:52:02.556Z,27.20
2018-06-20T13:54:29.701Z,27.20
2018-06-20T13:56:56.873Z,27.10
2018-06-20T13:59:24.372Z,27.10
2018-06-20T14:04:18.981Z,27.20
2018-06-20T14:06:46.152Z,27.30
2018-06-20T14:09:13.317Z,27.30
2018-06-20T14:11:41.154Z,27.40
2018-06-20T14:14:08.654Z,27.50
2018-06-20T14:16:35.946Z,27.50
2018-06-20T14:19:03.229Z,27.50
2018-06-20T14:21:39.124Z,27.50
2018-06-20T14:24:07.505Z,27.60
2018-06-20T14:26:35.251Z,27.60
2018-06-20T14:29:02.447Z,27.70
2018-06-20T14:31:35.319Z,27.80
2018-06-20T14:34:08.347Z,27.90
2018-06-20T14:36:41.307Z,27.90
2018-06-20T14:39:14.559Z,27.90
2018-06-20T14:41:47.898Z,28.00
2018-06-20T14:44:15.563Z,28.00
2018-06-20T14:46:42.757Z,28.00
2018-06-20T14:49:09.945Z,28.20
2018-06-20T14:54:04.410Z,28.10
2018-06-20T14:56:31.631Z,28.00
2018-06-20T14:58:58.805Z,28.00
2018-06-20T15:03:53.261Z,28.00
2018-06-20T15:06:20.441Z,28.10
2018-06-20T15:08:47.641Z,28.10
2018-06-20T15:13:42.035Z,28.10
2018-06-20T15:16:15.153Z,28.10
2018-06-20T15:21:09.516Z,28.20
2018-06-20T15:23:36.690Z,28.30
2018-06-20T15:26:09.781Z,28.30
2018-06-20T15:28:42.769Z,28.30
2018-06-20T15:31:15.770Z,28.30
2018-06-20T15:33:48.773Z,28.40
2018-06-20T15:38:48.982Z,28.40
2018-06-20T15:41:16.148Z,28.40
2018-06-20T15:43:43.373Z,28.40
2018-06-20T15:46:10.537Z,28.40
2018-06-20T15:48:37.731Z,28.40
2018-06-20T15:51:05.127Z,28.40
2018-06-20T15:55:59.458Z,28.50
2018-06-20T15:58:26.662Z,28.60
2018-06-20T16:00:53.855Z,28.70
2018-06-20T16:03:21.339Z,28.80
2018-06-20T16:05:48.601Z,28.80
2018-06-20T16:08:15.897Z,28.80
2018-06-20T16:10:43.069Z,28.80
2018-06-20T16:15:37.453Z,28.80
2018-06-20T16:18:04.684Z,28.90
2018-06-20T16:20:41.692Z,28.90
2018-06-20T16:25:47.777Z,28.90
2018-06-20T16:33:15.526Z,28.90
2018-06-20T16:35:42.686Z,28.90
2018-06-20T16:38:10.197Z,28.90
2018-06-20T16:40:37.390Z,28.80
2018-06-20T16:43:04.597Z,28.80
2018-06-20T16:45:31.778Z,28.80
2018-06-20T16:50:26.178Z,28.80
2018-06-20T16:52:53.641Z,28.80
2018-06-20T16:55:20.823Z,28.70
2018-06-20T16:57:47.977Z,28.70
2018-06-20T17:02:43.455Z,28.60
2018-06-20T17:05:11.026Z,28.60
2018-06-20T17:07:42.305Z,28.60
2018-06-20T17:10:09.484Z,28.50
2018-06-20T17:12:42.365Z,28.50
2018-06-20T17:15:15.338Z,28.50
2018-06-20T17:17:48.346Z,28.40
2018-06-20T17:22:54.249Z,28.30
2018-06-20T17:25:26.678Z,28.30
2018-06-20T17:27:53.865Z,28.20
2018-06-20T17:30:21.402Z,28.20
2018-06-20T17:32:48.578Z,28.10
2018-06-20T17:37:42.994Z,28.10
2018-06-20T17:40:10.121Z,28.10
2018-06-20T17:42:37.302Z,28.10
2018-06-20T17:47:31.690Z,28.00
2018-06-20T17:49:58.868Z,27.90
2018-06-20T17:52:28.078Z,27.90
2018-06-20T17:54:55.253Z,27.80
2018-06-20T17:57:22.433Z,27.80
2018-06-20T17:59:51.661Z,27.80
2018-06-20T18:02:18.836Z,27.70
2018-06-20T18:07:24.814Z,27.60
2018-06-20T18:09:57.810Z,27.60
2018-06-20T18:15:04.071Z,27.60
2018-06-20T18:17:31.246Z,27.60
2018-06-20T18:19:58.398Z,27.60
2018-06-20T18:22:25.557Z,27.60
2018-06-20T18:27:19.961Z,27.50
2018-06-20T18:32:14.678Z,27.40
2018-06-20T18:34:41.850Z,27.40
2018-06-20T18:39:46.073Z,27.50
2018-06-20T18:42:13.179Z,27.50
2018-06-20T18:44:40.363Z,27.50
2018-06-20T18:47:07.562Z,27.50
2018-06-20T18:49:34.966Z,27.40
2018-06-20T18:52:06.442Z,27.40
2018-06-20T18:54:33.626Z,27.40
2018-06-20T19:02:07.256Z,27.20
2018-06-20T19:04:40.497Z,27.00
2018-06-20T19:07:13.421Z,26.90
2018-06-20T19:09:40.632Z,26.90
2018-06-20T19:14:35.022Z,26.70
2018-06-20T19:17:02.675Z,26.70
2018-06-20T19:19:29.912Z,26.60
2018-06-20T19:21:57.238Z,26.60
2018-06-20T19:24:24.745Z,26.60
2018-06-20T19:26:51.986Z,26.50
2018-06-20T19:29:19.217Z,26.50
2018-06-20T19:31:46.828Z,26.40
2018-06-20T19:34:14.031Z,26.40
2018-06-20T19:39:14.730Z,26.30
2018-06-20T19:44:14.789Z,26.10
2018-06-20T19:46:42.213Z,26.10
2018-06-20T19:51:36.738Z,26.10
2018-06-20T19:54:04.061Z,26.00
2018-06-20T19:58:58.701Z,25.90
2018-06-20T20:01:25.889Z,25.90
2018-06-20T20:03:53.098Z,25.80
2018-06-20T20:06:20.289Z,25.80
2018-06-20T20:08:47.674Z,25.80
2018-06-20T20:11:14.859Z,25.80
2018-06-20T20:13:42.415Z,25.70
2018-06-20T20:18:37.138Z,25.70
2018-06-20T20:21:04.538Z,25.60
2018-06-20T20:23:32.337Z,25.50
2018-06-20T20:25:59.523Z,25.50
2018-06-20T20:28:26.693Z,25.50
2018-06-20T20:33:21.073Z,25.50
2018-06-20T20:35:48.222Z,25.50
2018-06-20T20:38:15.761Z,25.50
2018-06-20T20:40:42.947Z,25.50
2018-06-20T20:43:10.102Z,25.40
2018-06-20T20:45:43.322Z,25.40
2018-06-20T20:48:10.509Z,25.40
2018-06-20T20:50:37.714Z,25.40
2018-06-20T20:53:04.881Z,25.30
2018-06-20T20:55:32.251Z,25.30
2018-06-20T20:57:59.545Z,25.30
2018-06-20T21:00:27.041Z,25.20
2018-06-20T21:05:21.482Z,25.20
2018-06-20T21:07:49.027Z,25.20
2018-06-20T21:10:16.177Z,25.10
2018-06-20T21:12:43.482Z,25.10
2018-06-20T21:15:10.989Z,25.10
2018-06-20T21:17:38.164Z,25.00
2018-06-20T21:20:05.319Z,24.90
2018-06-20T21:22:32.518Z,25.00
2018-06-20T21:24:59.732Z,24.90
2018-06-20T21:27:26.932Z,24.90
2018-06-20T21:32:21.326Z,24.80
2018-06-20T21:34:48.462Z,24.80
2018-06-20T21:39:42.918Z,24.70
2018-06-20T21:42:10.107Z,24.70
2018-06-20T21:44:37.574Z,24.70
2018-06-20T21:47:04.916Z,24.70
2018-06-20T21:49:32.103Z,24.70
2018-06-20T21:56:56.174Z,24.70
2018-06-20T21:59:23.376Z,24.70
2018-06-20T22:01:50.701Z,24.70
2018-06-20T22:04:18.192Z,24.70
2018-06-20T22:06:45.762Z,24.60
2018-06-20T22:11:40.202Z,24.60
2018-06-20T22:14:08.656Z,24.60
2018-06-20T22:16:35.998Z,24.60
2018-06-20T22:19:03.201Z,24.60
2018-06-20T22:23:58.073Z,24.60
2018-06-20T22:26:25.245Z,24.50
2018-06-20T22:28:52.698Z,24.50
2018-06-20T22:31:19.910Z,24.50
2018-06-20T22:33:47.153Z,24.50
2018-06-20T22:36:14.435Z,24.50
2018-06-20T22:41:08.965Z,24.40
2018-06-20T22:43:36.238Z,24.50
2018-06-20T22:46:03.508Z,24.40
2018-06-20T22:48:31.154Z,24.40
2018-06-20T22:50:58.401Z,24.40
2018-06-20T22:53:25.651Z,24.40
2018-06-20T22:58:20.171Z,24.40
2018-06-20T23:00:47.437Z,24.40
2018-06-20T23:03:14.699Z,24.40
2018-06-20T23:05:42.009Z,24.40
2018-06-20T23:10:36.875Z,24.30
2018-06-20T23:13:04.301Z,24.20
2018-06-20T23:17:59.274Z,24.20
2018-06-20T23:20:26.531Z,24.10
2018-06-20T23:22:53.794Z,24.10
2018-06-20T23:25:21.070Z,24.00
2018-06-20T23:27:48.870Z,24.00
2018-06-20T23:32:43.439Z,23.90
2018-06-20T23:35:10.691Z,23.90
2018-06-20T23:37:38.004Z,23.90
2018-06-20T23:40:05.408Z,23.90
2018-06-20T23:42:32.691Z,23.90
2018-06-20T23:44:59.939Z,23.90
2018-06-20T23:47:27.590Z,23.90
2018-06-20T23:49:54.904Z,23.80
2018-06-20T23:54:49.551Z,23.80
2018-06-20T23:57:16.828Z,23.70
2018-06-20T23:59:44.094Z,23.70
